Time;durP1;ratioP1;P1;durP2;ratioP2;P2;SDS_P1;SDS_P2;PMS_P1;PMS_P2;Temp;Humidity;BMP_temperature;BMP_pressure;BME280_temperature;BME280_humidity;BME280_pressure;Samples;Min_cycle;Max_cycle;Signal;HPM_P1;HPM_P2
2021/12/21 00:01:19;;;;;;;5.30;2.63;;;;;;;-0.14;71.30;100068.77;124379;1109;104364;-81
2021/12/21 00:03:49;;;;;;;6.00;2.60;;;;;;;-0.15;70.99;100076.39;124466;1109;104170;-82
2021/12/21 00:06:25;;;;;;;6.00;2.60;;;;;;;-0.17;71.28;100078.86;124408;1109;104175;-81
2021/12/21 00:08:54;;;;;;;6.20;2.80;;;;;;;-0.17;71.50;100081.44;124407;1109;104380;-83
2021/12/21 00:11:24;;;;;;;4.03;2.30;;;;;;;-0.18;71.41;100079.64;124387;1109;104195;-82
2021/12/21 00:14:00;;;;;;;3.63;2.13;;;;;;;-0.19;71.83;100090.73;124388;1109;104189;-82
2021/12/21 00:19:36;;;;;;;5.93;2.60;;;;;;;-0.21;72.04;100102.63;124375;1109;105610;-82
2021/12/21 00:22:14;;;;;;;8.37;2.83;;;;;;;-0.20;71.44;100107.89;124427;1109;104179;-82
2021/12/21 00:24:48;;;;;;;6.00;2.90;;;;;;;-0.20;71.58;100107.01;124381;1112;104172;-83
2021/12/21 00:27:16;;;;;;;5.30;2.63;;;;;;;-0.18;71.96;100113.16;124396;1109;104207;-82
2021/12/21 00:29:46;;;;;;;6.73;2.80;;;;;;;-0.17;71.11;100117.55;124359;1109;104688;-83
2021/12/21 00:32:18;;;;;;;6.23;2.60;;;;;;;-0.16;71.84;100121.90;124752;1106;104163;-83
2021/12/21 00:34:48;;;;;;;4.40;2.60;;;;;;;-0.14;71.59;100120.34;125031;1102;104203;-82
2021/12/21 00:37:18;;;;;;;6.00;2.97;;;;;;;-0.14;71.60;100138.41;125288;1102;104353;-81
2021/12/21 00:39:47;;;;;;;3.33;2.47;;;;;;;-0.11;71.41;100133.47;125174;1102;104153;-81
2021/12/21 00:42:16;;;;;;;4.20;2.00;;;;;;;-0.07;72.31;100131.99;125344;1102;104223;-82
2021/12/21 00:44:44;;;;;;;2.87;2.07;;;;;;;-0.05;71.35;100148.47;125546;1100;104156;-82
2021/12/21 00:47:15;;;;;;;5.07;2.20;;;;;;;-0.02;71.60;100148.69;126311;1099;104149;-83
2021/12/21 00:49:46;;;;;;;4.27;2.30;;;;;;;0.01;71.47;100158.34;126186;1099;104220;-82
2021/12/21 00:52:16;;;;;;;4.70;2.60;;;;;;;0.01;70.98;100158.34;126254;1099;104200;-82
2021/12/21 00:54:44;;;;;;;3.17;2.07;;;;;;;0.03;70.89;100159.34;126327;1099;104194;-82
2021/12/21 00:57:13;;;;;;;3.87;2.23;;;;;;;0.01;70.94;100163.50;126325;1099;104155;-82
2021/12/21 00:59:43;;;;;;;2.97;2.00;;;;;;;-0.01;70.95;100174.59;126268;1099;104155;-82
2021/12/21 01:02:12;;;;;;;3.33;2.07;;;;;;;-0.02;69.63;100179.64;126342;1099;104476;-82
2021/12/21 01:04:48;;;;;;;2.30;1.77;;;;;;;-0.06;68.31;100178.53;126288;1098;104675;-83
2021/12/21 01:07:24;;;;;;;4.03;1.60;;;;;;;-0.12;66.23;100175.50;126339;1099;104159;-81
2021/12/21 01:10:37;;;;;;;5.73;1.10;;;;;;;-0.15;64.36;100179.55;126270;1099;104146;-81
2021/12/21 01:13:33;;;;;;;2.07;1.40;;;;;;;-0.25;65.67;100176.30;125918;1099;104181;-81
2021/12/21 01:19:08;;;;;;;2.07;1.07;;;;;;;-0.39;63.83;100195.91;126186;1099;104331;-82
2021/12/21 01:22:02;;;;;;;5.57;1.67;;;;;;;-0.45;61.74;100198.03;126246;1099;104255;-82
2021/12/21 01:24:56;;;;;;;4.73;1.47;;;;;;;-0.52;60.60;100203.50;126294;1099;104159;-82
2021/12/21 01:27:42;;;;;;;1.77;1.23;;;;;;;-0.56;62.27;100209.22;126348;1098;104225;-82
2021/12/21 01:30:30;;;;;;;1.47;1.10;;;;;;;-0.60;61.53;100215.80;126265;1098;104161;-83
2021/12/21 01:33:27;;;;;;;2.83;1.30;;;;;;;-0.63;62.54;100213.00;126326;1099;104658;-82
2021/12/21 01:36:12;;;;;;;2.00;1.40;;;;;;;-0.67;60.96;100233.27;126239;1099;104156;-81
2021/12/21 01:38:57;;;;;;;1.80;1.20;;;;;;;-0.73;61.03;100246.60;126295;1099;104293;-81
2021/12/21 01:41:38;;;;;;;3.37;1.20;;;;;;;-0.78;61.03;100240.17;125741;1099;104165;-81
2021/12/21 01:44:31;;;;;;;3.90;1.63;;;;;;;-0.82;61.50;100236.48;126263;1099;104296;-81
2021/12/21 01:49:54;;;;;;;1.70;1.37;;;;;;;-0.96;59.57;100253.45;126317;1099;104203;-82
2021/12/21 01:52:37;;;;;;;3.30;1.40;;;;;;;-1.01;59.80;100264.16;126220;1099;104329;-82
2021/12/21 01:55:12;;;;;;;2.70;1.70;;;;;;;-1.05;61.29;100257.00;126233;1099;101741;-82
2021/12/21 01:57:53;;;;;;;2.40;1.30;;;;;;;-1.07;61.51;100262.03;126275;1099;104277;-82
2021/12/21 02:00:27;;;;;;;2.50;1.33;;;;;;;-1.10;60.66;100269.52;125285;1100;104349;-82
2021/12/21 02:03:11;;;;;;;3.83;1.60;;;;;;;-1.10;61.50;100270.40;125256;1101;104214;-82
2021/12/21 02:05:48;;;;;;;2.67;1.60;;;;;;;-1.12;61.91;100271.97;125286;1102;104326;-82
2021/12/21 02:08:21;;;;;;;2.83;1.80;;;;;;;-1.13;62.01;100277.88;125366;1102;104287;-82
2021/12/21 02:10:53;;;;;;;3.40;1.57;;;;;;;-1.17;62.07;100299.05;125275;1102;105692;-82
2021/12/21 02:13:22;;;;;;;4.57;2.20;;;;;;;-1.18;62.44;100298.92;125238;1099;104312;-83
2021/12/21 02:15:58;;;;;;;3.37;1.77;;;;;;;-1.18;62.54;100292.09;125360;1102;104403;-82
2021/12/21 02:18:54;;;;;;;3.63;1.80;;;;;;;-1.18;62.70;100301.50;125296;1099;104310;-82
2021/12/21 02:21:32;;;;;;;2.90;1.70;;;;;;;-1.21;62.54;100301.25;125288;1099;104225;-82
2021/12/21 02:24:14;;;;;;;3.13;1.57;;;;;;;-1.31;59.21;100323.69;125272;1102;104159;-81
2021/12/21 02:26:52;;;;;;;1.97;1.53;;;;;;;-1.35;60.65;100315.60;125312;1102;104165;-82
2021/12/21 02:29:34;;;;;;;2.47;1.40;;;;;;;-1.39;60.92;100336.71;125332;1102;104268;-82
2021/12/21 02:32:08;;;;;;;4.67;1.97;;;;;;;-1.47;61.12;100328.37;125324;1099;104286;-82
2021/12/21 02:34:47;;;;;;;;;;;;;;;;;;;;;
2021/12/21 02:37:21;;;;;;;4.33;1.37;;;;;;;-1.59;62.77;100343.73;125352;1099;104229;-82
2021/12/21 02:39:49;;;;;;;;;;;;;;;-1.67;62.20;100350.83;125334;1099;104159;-82
2021/12/21 02:42:25;;;;;;;6.93;1.90;;;;;;;-1.72;62.52;100346.96;125274;1099;104233;-82
2021/12/21 02:45:03;;;;;;;3.43;1.50;;;;;;;-1.73;62.97;100351.98;125317;1099;104310;-82
2021/12/21 02:47:43;;;;;;;5.83;1.80;;;;;;;-1.76;62.81;100352.66;125304;1099;104313;-83
2021/12/21 02:50:15;;;;;;;3.63;1.87;;;;;;;-1.76;62.98;100356.88;125301;1102;104418;-81
2021/12/21 02:52:48;;;;;;;2.83;1.70;;;;;;;-1.78;64.10;100358.44;125244;1102;104156;-81
2021/12/21 02:55:22;;;;;;;3.20;2.03;;;;;;;-1.77;63.29;100366.27;125313;1099;104662;-82
2021/12/21 02:57:57;;;;;;;3.13;1.90;;;;;;;-1.76;63.14;100364.59;125247;1099;104277;-82
2021/12/21 03:00:31;;;;;;;5.30;1.80;;;;;;;-1.76;63.06;100380.02;125357;1099;104169;-82
2021/12/21 03:03:17;;;;;;;3.97;1.63;;;;;;;-1.76;63.88;100364.59;125292;1099;104319;-81
2021/12/21 03:05:54;;;;;;;2.13;1.47;;;;;;;-1.81;63.26;100359.98;126157;1099;104140;-82
2021/12/21 03:08:37;;;;;;;2.40;1.73;;;;;;;-1.80;64.53;100366.02;126346;1099;104162;-81
2021/12/21 03:11:24;;;;;;;2.87;1.87;;;;;;;-1.81;63.31;100362.56;125315;1099;104201;-81
2021/12/21 03:16:46;;;;;;;2.60;1.50;;;;;;;-1.85;63.92;100368.21;126243;1099;104762;-82
2021/12/21 03:19:15;;;;;;;2.77;1.87;;;;;;;-1.83;63.71;100361.52;126270;1099;104198;-81
2021/12/21 03:21:44;;;;;;;3.10;1.70;;;;;;;-1.85;63.35;100357.03;126213;1099;104307;-82
2021/12/21 03:24:17;;;;;;;2.30;1.67;;;;;;;-1.85;64.18;100370.78;125281;1099;105681;-82
2021/12/21 03:26:52;;;;;;;3.90;2.17;;;;;;;-1.85;64.58;100369.90;125311;1099;104140;-82
2021/12/21 03:29:25;;;;;;;2.87;2.07;;;;;;;-1.85;64.07;100375.93;125306;1102;104306;-82
2021/12/21 03:32:01;;;;;;;4.20;1.77;;;;;;;-1.87;63.20;100368.84;125293;1102;104361;-81
2021/12/21 03:34:38;;;;;;;4.63;1.93;;;;;;;-1.91;64.07;100377.99;126091;1099;104454;-81
2021/12/21 03:37:12;;;;;;;3.90;2.00;;;;;;;-1.95;62.09;100385.33;126159;1099;104653;-81
2021/12/21 03:39:45;;;;;;;2.83;1.25;;;;;;;-2.00;61.11;100405.52;126326;1099;104146;-81
2021/12/21 03:42:20;;;;;;;3.33;1.42;;;;;;;-2.09;58.93;100387.62;126282;1099;104214;-82
2021/12/21 03:44:49;;;;;;;1.67;1.47;;;;;;;-2.12;60.23;100410.55;126280;1099;108142;-81
2021/12/21 03:47:27;;;;;;;5.80;2.13;;;;;;;-2.18;59.80;100398.06;125352;1099;104192;-81
2021/12/21 03:49:59;;;;;;;2.57;1.50;;;;;;;-2.24;60.46;100410.39;125320;1099;104150;-82
2021/12/21 03:52:30;;;;;;;3.13;1.47;;;;;;;-2.27;59.09;100422.98;125305;1099;104163;-81
2021/12/21 03:55:26;;;;;;;3.53;2.00;;;;;;;-2.29;60.04;100415.90;125268;1099;104492;-81
2021/12/21 03:58:25;;;;;;;3.20;1.80;;;;;;;-2.38;61.84;100424.63;125265;1099;104150;-82
2021/12/21 04:01:04;;;;;;;3.60;1.87;;;;;;;-2.42;61.51;100425.12;125312;1102;104300;-81
2021/12/21 04:03:33;;;;;;;4.47;1.70;;;;;;;-2.46;60.62;100429.87;125280;1102;104259;-81
2021/12/21 04:06:03;;;;;;;4.53;1.90;;;;;;;-2.54;61.17;100430.13;125340;1102;105249;-81
2021/12/21 04:08:32;;;;;;;6.53;2.47;;;;;;;-2.58;61.50;100448.61;125333;1099;104683;-82
2021/12/21 04:11:01;;;;;;;2.93;1.67;;;;;;;-2.63;61.12;100428.45;125297;1099;104243;-82
2021/12/21 04:13:30;;;;;;;2.55;1.85;;;;;;;-2.68;60.54;100430.62;125258;1102;104194;-82
2021/12/21 04:16:01;;;;;;;1.97;1.53;;;;;;;-2.70;60.92;100432.12;125319;1099;104329;-82
2021/12/21 04:18:39;;;;;;;3.40;2.00;;;;;;;-2.72;60.74;100436.24;125351;1099;104272;-82
2021/12/21 04:21:11;;;;;;;7.07;2.37;;;;;;;-2.74;61.05;100463.47;125310;1099;104674;-82
2021/12/21 04:23:43;;;;;;;4.43;2.10;;;;;;;-2.77;60.88;100471.80;125293;1099;104198;-82
2021/12/21 04:26:16;;;;;;;4.13;2.20;;;;;;;-2.81;60.57;100479.98;126146;1099;104192;-81
2021/12/21 04:28:54;;;;;;;5.60;2.27;;;;;;;-2.81;61.37;100473.96;126285;1099;104146;-82
2021/12/21 04:31:23;;;;;;;2.97;2.27;;;;;;;-2.80;61.80;100465.50;126328;1099;104162;-82
2021/12/21 04:33:53;;;;;;;3.90;1.87;;;;;;;-2.85;60.58;100482.15;126313;1099;104299;-82
2021/12/21 04:36:23;;;;;;;4.20;2.63;;;;;;;-2.85;60.72;100469.31;126258;1098;104200;-82
2021/12/21 04:38:53;;;;;;;6.97;2.73;;;;;;;-2.87;62.05;100479.44;126237;1099;104277;-82
2021/12/21 04:41:23;;;;;;;4.93;2.50;;;;;;;-2.89;62.12;100481.88;126256;1099;104193;-82
2021/12/21 04:43:53;;;;;;;4.03;2.40;;;;;;;-2.95;62.31;100493.28;126204;1099;104137;-82
2021/12/21 04:46:22;;;;;;;5.30;2.70;;;;;;;-2.97;62.31;100498.28;126184;1099;104179;-83
2021/12/21 04:48:57;;;;;;;7.30;2.43;;;;;;;-3.02;61.89;100489.27;126221;1099;104271;-82
2021/12/21 04:51:25;;;;;;;3.97;2.47;;;;;;;-3.03;61.63;100497.73;126306;1099;104166;-83
2021/12/21 04:53:54;;;;;;;4.90;2.83;;;;;;;-3.03;61.96;100500.30;126116;1099;104134;-84
2021/12/21 04:56:23;;;;;;;3.70;2.03;;;;;;;-3.07;61.64;100500.77;126222;1099;104171;-83
2021/12/21 04:58:52;;;;;;;4.37;2.30;;;;;;;-3.09;62.04;100497.18;126283;1099;104293;-82
2021/12/21 05:01:20;;;;;;;8.40;2.80;;;;;;;-3.14;61.85;100495.88;126151;1099;104140;-84
2021/12/21 05:03:49;;;;;;;6.33;2.60;;;;;;;-3.18;62.07;100493.78;126284;1099;104198;-83
2021/12/21 05:06:19;;;;;;;4.07;2.53;;;;;;;-3.23;61.98;100493.38;126276;1099;105493;-83
2021/12/21 05:09:03;;;;;;;5.30;2.60;;;;;;;-3.27;62.61;100497.34;126343;1099;104178;-82
2021/12/21 05:11:35;;;;;;;5.37;2.13;;;;;;;-3.29;62.65;100498.88;126215;1099;104147;-82
2021/12/21 05:14:06;;;;;;;4.75;2.10;;;;;;;-3.32;63.39;100503.73;126129;1099;104141;-81
2021/12/21 05:16:35;;;;;;;7.43;3.00;;;;;;;-3.31;63.66;100495.24;126061;1099;104140;-83
2021/12/21 05:19:04;;;;;;;6.13;2.50;;;;;;;-3.32;64.32;100518.20;126059;1099;104290;-82
2021/12/21 05:21:33;;;;;;;5.23;2.47;;;;;;;-3.33;63.77;100513.85;126132;1099;104685;-82
2021/12/21 05:24:05;;;;;;;7.37;3.00;;;;;;;-3.34;63.99;100517.17;126196;1099;104504;-81
2021/12/21 05:26:33;;;;;;;8.17;2.67;;;;;;;-3.33;63.26;100531.81;126172;1099;104216;-81
2021/12/21 05:29:06;;;;;;;6.87;2.80;;;;;;;-3.34;63.64;100524.87;126123;1099;104169;-82
2021/12/21 05:31:35;;;;;;;5.03;2.63;;;;;;;-3.34;63.40;100519.73;126157;1099;104233;-82
2021/12/21 05:34:05;;;;;;;6.60;3.00;;;;;;;-3.32;63.69;100534.52;126171;1099;104278;-81
2021/12/21 05:36:34;;;;;;;4.83;2.83;;;;;;;-3.31;64.04;100531.17;126176;1099;104335;-82
2021/12/21 05:39:03;;;;;;;7.07;2.80;;;;;;;-3.31;64.30;100527.72;126209;1099;104178;-81
2021/12/21 05:41:47;;;;;;;6.13;3.10;;;;;;;-3.33;64.01;100537.84;125301;1099;104213;-81
2021/12/21 05:44:18;;;;;;;4.20;2.53;;;;;;;-3.33;63.86;100542.97;126097;1099;104204;-81
2021/12/21 05:46:47;;;;;;;7.87;2.93;;;;;;;-3.32;64.03;100542.22;126154;1099;104220;-81
2021/12/21 05:49:16;;;;;;;7.20;3.30;;;;;;;-3.34;63.99;100548.86;126192;1099;104275;-81
2021/12/21 05:51:50;;;;;;;10.53;3.20;;;;;;;-3.29;64.35;100559.55;126105;1099;104287;-80
2021/12/21 05:54:25;;;;;;;7.87;3.93;;;;;;;-3.27;64.58;100571.77;126334;1099;104312;-80
2021/12/21 05:57:07;;;;;;;5.30;3.00;;;;;;;-3.27;65.45;100566.63;125996;1099;104322;-81
2021/12/21 05:59:38;;;;;;;7.90;2.83;;;;;;;-3.32;66.79;100562.75;126055;1099;104188;-81
2021/12/21 06:02:07;;;;;;;5.23;2.57;;;;;;;-3.36;66.39;100575.16;125956;1099;104711;-81
2021/12/21 06:04:38;;;;;;;7.80;2.73;;;;;;;-3.38;65.24;100575.02;126043;1099;104140;-80
2021/12/21 06:07:07;;;;;;;10.13;3.00;;;;;;;-3.36;65.61;100578.61;126126;1099;105514;-80
2021/12/21 06:09:35;;;;;;;8.47;3.53;;;;;;;-3.33;65.37;100583.14;125989;1099;104194;-80
2021/12/21 06:12:11;;;;;;;8.83;3.23;;;;;;;-3.32;65.46;100592.63;126039;1099;105047;-81
2021/12/21 06:23:47;;;;;;;10.07;4.10;;;;;;;-3.18;64.64;100612.78;125096;1102;104171;-81
2021/12/21 06:26:20;;;;;;;13.03;3.70;;;;;;;-3.15;64.70;100617.27;125110;1102;104177;-81
2021/12/21 06:28:51;;;;;;;9.63;3.43;;;;;;;-3.11;64.61;100624.50;125085;1102;104653;-82
2021/12/21 06:31:23;;;;;;;8.53;2.93;;;;;;;-3.12;65.57;100633.84;125072;1100;104179;-81
2021/12/21 06:33:56;;;;;;;5.67;3.17;;;;;;;-3.05;64.54;100621.58;125220;1102;104233;-79
2021/12/21 06:36:26;;;;;;;8.43;4.10;;;;;;;-2.97;64.90;100625.77;125226;1102;104473;-80
2021/12/21 06:39:02;;;;;;;9.43;3.67;;;;;;;-2.91;65.40;100616.95;125171;1102;104548;-83
2021/12/21 06:41:33;;;;;;;11.03;3.90;;;;;;;-2.85;65.10;100620.83;125202;1102;104675;-82
2021/12/21 06:44:07;;;;;;;14.40;4.67;;;;;;;-2.80;65.51;100622.17;125077;1102;104214;-83
2021/12/21 06:46:50;;;;;;;13.33;4.53;;;;;;;-2.75;64.71;100626.05;124896;1103;104150;-82
2021/12/21 06:52:14;;;;;;;5.37;2.83;;;;;;;-2.65;63.77;100633.83;125200;1102;104283;-82
2021/12/21 06:54:45;;;;;;;9.93;3.53;;;;;;;-2.66;64.14;100639.72;125162;1102;104287;-83
2021/12/21 06:57:43;;;;;;;6.33;3.10;;;;;;;-2.66;64.21;100628.55;124980;1102;104325;-84
2021/12/21 07:00:29;;;;;;;4.93;2.80;;;;;;;-2.63;64.38;100626.26;125022;1102;104605;-82
2021/12/21 07:03:28;;;;;;;9.07;3.37;;;;;;;-2.62;63.89;100626.36;125097;1102;104453;-82
2021/12/21 07:06:12;;;;;;;6.73;2.60;;;;;;;-2.63;62.47;100640.00;125161;1102;104342;-80
2021/12/21 07:08:56;;;;;;;8.60;3.10;;;;;;;-2.56;63.29;100644.91;125088;1102;104320;-81
2021/12/21 07:11:31;;;;;;;11.83;3.70;;;;;;;-2.48;64.24;100652.41;125131;1102;104165;-81
2021/12/21 07:19:53;;;;;;;;;;;;;;;;;;;;;
2021/12/21 07:22:55;;;;;;;5.63;2.60;;;;;;;-2.23;62.56;100648.70;125743;1099;104303;-82
2021/12/21 07:25:58;;;;;;;6.13;2.97;;;;;;;-2.21;62.79;100665.16;125136;1099;104887;-84
2021/12/21 07:28:38;;;;;;;7.28;3.15;;;;;;;-2.17;62.00;100667.25;125078;1099;104175;-84
2021/12/21 07:31:30;;;;;;;;;;;;;;;;;;;;;
2021/12/21 07:34:30;;;;;;;5.63;2.27;;;;;;;-2.20;60.61;100659.27;125091;1102;102361;-82
2021/12/21 07:37:12;;;;;;;;;;;;;;;-2.29;60.24;100667.80;125154;1099;104201;-82
2021/12/21 07:39:57;;;;;;;;;;;;;;;;;;;;;
2021/12/21 07:42:50;;;;;;;6.73;2.60;;;;;;;-2.41;59.34;100696.78;125125;1099;104730;-80
2021/12/21 07:45:33;;;;;;;6.83;2.30;;;;;;;-2.47;57.54;100695.34;125200;1099;104270;-81
2021/12/21 07:48:12;;;;;;;;;;;;;;;-2.53;57.40;100699.14;125185;1099;104211;-81
2021/12/21 07:50:51;;;;;;;9.93;2.80;;;;;;;-2.45;59.22;100712.69;125653;1098;104303;-80
2021/12/21 07:53:23;;;;;;;8.07;3.10;;;;;;;-2.43;58.35;100713.75;126070;1099;102219;-80
2021/12/21 07:56:02;;;;;;;5.87;2.80;;;;;;;-2.33;58.97;100714.58;126093;1098;104154;-81
2021/12/21 07:58:33;;;;;;;6.87;2.77;;;;;;;-2.18;57.13;100718.53;125900;1099;104137;-80
2021/12/21 08:01:06;;;;;;;8.20;3.50;;;;;;;-2.05;58.83;100721.41;126071;1099;104147;-80
2021/12/21 08:03:49;;;;;;;7.25;2.90;;;;;;;-2.03;57.65;100730.16;125948;1099;104662;-79
2021/12/21 08:06:20;;;;;;;8.47;2.63;;;;;;;-2.15;56.77;100741.02;126059;1099;104165;-79
2021/12/21 08:08:53;;;;;;;6.97;2.97;;;;;;;-2.21;57.44;100715.69;125983;1099;104201;-79
2021/12/21 08:14:26;;;;;;;6.97;3.10;;;;;;;-2.19;57.98;100734.71;126049;1099;102306;-78
2021/12/21 08:17:07;;;;;;;7.10;2.85;;;;;;;-2.26;58.20;100747.77;126003;1098;104297;-77
2021/12/21 08:19:48;;;;;;;7.70;2.67;;;;;;;-2.25;57.77;100734.16;125780;1099;104233;-79
2021/12/21 08:22:43;;;;;;;4.93;2.63;;;;;;;-2.17;57.25;100730.59;126100;1099;104300;-79
2021/12/21 08:25:25;;;;;;;10.53;2.87;;;;;;;-2.17;55.66;100741.81;126153;1099;104246;-79
2021/12/21 08:28:01;;;;;;;11.13;3.40;;;;;;;-2.07;57.19;100732.31;125976;1099;104213;-80
2021/12/21 08:30:35;;;;;;;9.28;3.50;;;;;;;-2.02;56.69;100737.12;125924;1099;104181;-81
2021/12/21 08:33:12;;;;;;;6.73;3.33;;;;;;;-1.94;56.34;100745.52;125832;1099;104140;-80
2021/12/21 08:35:53;;;;;;;8.37;3.30;;;;;;;-1.83;57.90;100743.91;125985;1099;104178;-78
2021/12/21 08:38:23;;;;;;;6.23;2.90;;;;;;;-1.77;56.34;100743.55;125773;1099;104217;-79
2021/12/21 08:40:58;;;;;;;9.80;3.60;;;;;;;-1.70;55.62;100745.88;126018;1099;103081;-77
2021/12/21 08:43:31;;;;;;;9.20;3.17;;;;;;;-1.65;56.41;100742.96;126076;1099;104133;-77
2021/12/21 08:46:03;;;;;;;6.10;2.60;;;;;;;-1.73;54.84;100745.61;125790;1099;104137;-79
2021/12/21 08:48:40;;;;;;;8.00;2.70;;;;;;;-1.77;56.55;100740.98;125806;1099;104233;-80
2021/12/21 08:51:19;;;;;;;7.47;3.20;;;;;;;-1.82;57.28;100720.89;125801;1098;112211;-78
2021/12/21 08:53:51;;;;;;;10.90;3.40;;;;;;;-1.81;56.73;100737.22;125581;1099;104197;-79
2021/12/21 08:56:22;;;;;;;5.87;3.03;;;;;;;-1.88;54.53;100743.50;125895;1099;104137;-81
2021/12/21 08:58:56;;;;;;;10.57;2.73;;;;;;;-1.95;55.57;100730.84;125833;1099;104306;-80
2021/12/21 09:01:26;;;;;;;;;;;;;;;-2.07;54.54;100717.81;126122;1099;104210;-79
2021/12/21 09:03:58;;;;;;;11.60;2.60;;;;;;;-2.04;54.74;100737.73;125987;1098;104210;-80
2021/12/21 09:06:36;;;;;;;5.80;2.83;;;;;;;-2.00;53.83;100753.58;126065;1099;104277;-78
2021/12/21 09:09:20;;;;;;;;;;;;;;;;;;;;;
2021/12/21 09:11:51;;;;;;;;;;;;;;;-1.93;52.87;100733.55;126078;1099;108659;-79
2021/12/21 09:14:40;;;;;;;7.10;2.83;;;;;;;-1.83;55.29;100733.61;125776;1099;104235;-79
2021/12/21 09:17:13;;;;;;;8.50;2.77;;;;;;;-1.71;55.48;100734.70;126108;1099;104343;-78
2021/12/21 09:19:48;;;;;;;8.97;2.83;;;;;;;-1.55;55.25;100742.09;125961;1099;102203;-77
2021/12/21 09:22:30;;;;;;;8.17;2.67;;;;;;;-1.57;53.57;100725.63;126041;1099;117847;-78
2021/12/21 09:25:10;;;;;;;10.17;2.83;;;;;;;-1.54;52.94;100774.79;125943;1099;104210;-79
2021/12/21 09:27:54;;;;;;;5.17;2.50;;;;;;;-1.64;51.49;100741.28;126098;1099;104153;-77
2021/12/21 09:30:27;;;;;;;4.03;2.20;;;;;;;-1.56;52.03;100747.09;126170;1099;105503;-77
2021/12/21 09:33:15;;;;;;;4.63;2.27;;;;;;;-1.45;52.78;100738.63;126082;1099;104239;-78
2021/12/21 09:35:44;;;;;;;8.53;2.50;;;;;;;-1.31;51.63;100729.54;125874;1099;104213;-78
2021/12/21 09:38:14;;;;;;;7.13;2.33;;;;;;;-1.23;51.44;100731.13;126029;1099;104232;-77
2021/12/21 09:40:47;;;;;;;4.77;2.47;;;;;;;-1.36;52.22;100738.55;126123;1099;105623;-78
2021/12/21 09:43:36;;;;;;;5.80;2.10;;;;;;;-1.51;52.78;100735.53;126019;1099;104447;-78
2021/12/21 09:46:19;;;;;;;5.30;2.60;;;;;;;-1.63;53.91;100731.12;126190;1099;104182;-78
2021/12/21 09:48:49;;;;;;;4.43;2.30;;;;;;;-1.78;52.04;100722.05;126126;1099;104281;-77
2021/12/21 09:51:33;;;;;;;;;;;;;;;-1.67;53.03;100733.29;126042;1099;104150;-77
2021/12/21 09:54:03;;;;;;;6.07;2.20;;;;;;;-1.67;52.25;100735.86;126017;1099;104165;-77
2021/12/21 09:56:36;;;;;;;9.50;2.87;;;;;;;-1.77;51.97;100736.73;126021;1099;104220;-76
2021/12/21 09:59:07;;;;;;;7.17;2.90;;;;;;;-1.82;52.25;100744.04;125956;1099;104147;-78
2021/12/21 10:01:37;;;;;;;11.60;2.97;;;;;;;-1.87;53.27;100728.95;126078;1099;104302;-77
2021/12/21 10:04:07;;;;;;;7.43;3.23;;;;;;;-1.93;52.67;100742.20;126070;1099;102521;-77
2021/12/21 10:06:47;;;;;;;7.20;2.50;;;;;;;-1.94;52.81;100734.34;125961;1098;104223;-80
2021/12/21 10:09:25;;;;;;;6.43;3.07;;;;;;;-1.90;53.63;100733.83;125943;1098;104245;-78
2021/12/21 10:11:57;;;;;;;10.27;2.83;;;;;;;-1.85;53.76;100736.05;125906;1099;104169;-78
2021/12/21 10:14:28;;;;;;;7.70;3.40;;;;;;;-1.76;53.65;100722.19;125992;1099;104449;-78
2021/12/21 10:17:32;;;;;;;;;;;;;;;;;;;;;
2021/12/21 10:20:18;;;;;;;7.13;3.17;;;;;;;-1.76;52.80;100724.76;125737;1099;104175;-79
2021/12/21 10:23:01;;;;;;;12.40;3.30;;;;;;;-1.84;53.41;100725.00;125730;1099;104269;-79
2021/12/21 10:25:43;;;;;;;5.90;2.55;;;;;;;-1.93;51.11;100725.83;126105;1098;104143;-78
2021/12/21 10:28:42;;;;;;;8.77;3.43;;;;;;;-1.95;53.76;100730.84;125734;1099;104185;-78
2021/12/21 10:31:14;;;;;;;7.43;3.30;;;;;;;-1.83;53.46;100737.08;125753;1099;104315;-79
2021/12/21 10:34:12;;;;;;;13.47;3.10;;;;;;;-1.74;52.97;100737.00;125994;1099;104278;-78
2021/12/21 10:36:56;;;;;;;7.37;2.87;;;;;;;-1.70;52.03;100730.45;125113;1099;104191;-79
2021/12/21 10:39:39;;;;;;;9.77;3.37;;;;;;;-1.55;54.22;100731.80;125217;1102;104690;-81
2021/12/21 10:42:28;;;;;;;6.20;2.80;;;;;;;-1.42;53.75;100722.56;125262;1099;104668;-80
2021/12/21 10:45:30;;;;;;;7.93;3.03;;;;;;;-1.41;53.67;100729.53;125798;1099;104332;-78
2021/12/21 10:48:22;;;;;;;6.13;3.33;;;;;;;-1.39;53.77;100721.15;125657;1099;104717;-80
2021/12/21 10:51:18;;;;;;;6.37;2.90;;;;;;;-1.36;52.73;100726.56;125631;1099;105573;-79
2021/12/21 10:54:01;;;;;;;9.23;3.30;;;;;;;-1.37;52.22;100726.43;125762;1099;104153;-79
2021/12/21 10:56:32;;;;;;;7.40;2.97;;;;;;;-1.43;52.33;100721.67;125942;1097;104140;-80
2021/12/21 10:59:13;;;;;;;9.00;3.50;;;;;;;-1.37;52.00;100719.63;125901;1099;104207;-81
2021/12/21 11:01:46;;;;;;;5.43;2.33;;;;;;;-1.33;51.31;100731.98;125694;1099;104320;-79
2021/12/21 11:04:17;;;;;;;7.07;3.13;;;;;;;-1.33;50.58;100734.55;125684;1098;112091;-81
2021/12/21 11:10:30;;;;;;;7.75;3.30;;;;;;;-1.33;52.29;100760.30;125593;1099;104303;-81
2021/12/21 11:13:09;;;;;;;10.57;3.40;;;;;;;-1.46;53.50;100791.80;125595;1099;104242;-80
2021/12/21 11:15:48;;;;;;;8.97;3.40;;;;;;;-1.75;55.73;100772.89;125894;1099;104274;-78
2021/12/21 11:18:26;;;;;;;9.33;4.13;;;;;;;-2.08;56.85;100776.82;125207;1099;104207;-79
2021/12/21 11:21:03;;;;;;;11.97;4.10;;;;;;;-2.24;56.51;100778.00;125688;1099;102304;-79
2021/12/21 11:23:41;;;;;;;12.40;4.30;;;;;;;-2.30;57.94;100776.55;125710;1099;104182;-79
2021/12/21 11:26:26;;;;;;;9.60;3.93;;;;;;;-2.30;57.48;100771.41;125783;1100;104152;-79
2021/12/21 11:29:08;;;;;;;10.63;4.37;;;;;;;-2.28;59.25;100778.47;125817;1099;104178;-78
2021/12/21 11:37:20;;;;;;;10.93;4.37;;;;;;;-2.24;60.55;100806.28;125964;1099;104145;-77
2021/12/21 11:37:48;;;;;;;10.27;4.70;;;;;;;-2.23;59.81;100771.18;126194;1099;102414;-78
2021/12/21 11:40:23;;;;;;;14.77;5.43;;;;;;;-2.23;58.66;100761.83;125932;1099;104146;-80
2021/12/21 11:43:14;;;;;;;11.83;4.70;;;;;;;-2.25;59.65;100770.15;125901;1099;104172;-80
2021/12/21 11:46:18;;;;;;;14.37;5.13;;;;;;;-2.27;60.42;100764.87;126143;1099;105198;-82
2021/12/21 11:49:00;;;;;;;13.57;5.17;;;;;;;-2.27;60.13;100766.55;125910;1099;104159;-80
2021/12/21 11:51:42;;;;;;;;;;;;;;;;;;;;;
2021/12/21 11:54:22;;;;;;;13.40;4.70;;;;;;;-2.27;59.69;100788.00;125994;1099;104291;-79
2021/12/21 11:57:30;;;;;;;15.50;4.60;;;;;;;-2.25;60.70;100785.58;125264;1099;104152;-78
2021/12/21 12:00:18;;;;;;;14.33;4.93;;;;;;;-2.27;60.14;100779.41;125578;1099;104409;-79
2021/12/21 12:02:54;;;;;;;12.67;4.43;;;;;;;-2.28;60.48;100778.47;125846;1099;104200;-78
2021/12/21 12:05:30;;;;;;;11.00;4.47;;;;;;;-2.27;60.59;100785.44;125818;1099;104230;-79
2021/12/21 12:08:05;;;;;;;11.03;4.50;;;;;;;-2.24;59.35;100787.39;125809;1099;104280;-81
2021/12/21 12:11:09;;;;;;;12.60;4.63;;;;;;;-2.25;59.83;100791.61;125805;1099;104168;-79
2021/12/21 12:13:45;;;;;;;11.57;4.50;;;;;;;-2.26;59.79;100782.11;125864;1099;104117;-78
2021/12/21 12:16:40;;;;;;;11.47;4.47;;;;;;;-2.27;59.65;100779.41;125866;1099;104191;-78
2021/12/21 12:19:27;;;;;;;12.30;4.23;;;;;;;-2.34;58.90;100777.91;125799;1099;104176;-78
2021/12/21 12:21:59;;;;;;;8.43;3.70;;;;;;;-2.35;59.61;100781.27;125708;1099;104139;-78
2021/12/21 12:24:39;;;;;;;7.60;3.50;;;;;;;-2.37;58.19;100783.70;125198;1099;104175;-77
2021/12/21 12:27:15;;;;;;;9.20;3.70;;;;;;;-2.38;58.83;100783.56;126081;1099;104143;-79
2021/12/21 12:29:51;;;;;;;7.67;3.73;;;;;;;-2.37;58.74;100778.56;126263;1099;104270;-78
2021/12/21 12:32:38;;;;;;;10.53;3.20;;;;;;;-2.42;56.95;100773.75;125391;1099;104302;-78
2021/12/21 12:35:44;;;;;;;;;;;;;;;;;;;;;
2021/12/21 12:38:44;;;;;;;8.30;3.73;;;;;;;-2.45;57.78;100778.61;125884;1099;104221;-78
2021/12/21 12:44:20;;;;;;;13.13;4.10;;;;;;;-2.42;58.05;100786.60;125475;1099;104284;-80
2021/12/21 12:47:02;;;;;;;9.40;3.43;;;;;;;-2.48;58.32;100786.92;126154;1099;104140;-81
2021/12/21 12:49:39;;;;;;;10.50;3.87;;;;;;;-2.62;59.20;100795.04;126066;1099;104362;-79